createdAt,value
2019-05-26T00:01:39.841Z,9.90
2019-05-26T00:04:07.211Z,7.93
2019-05-26T00:06:34.643Z,7.37
2019-05-26T00:09:02.303Z,8.30
2019-05-26T00:11:30.093Z,8.77
2019-05-26T00:13:59.348Z,8.30
2019-05-26T00:16:26.885Z,6.77
2019-05-26T00:18:54.096Z,7.17
2019-05-26T00:21:21.287Z,7.60
2019-05-26T00:23:48.382Z,10.37
2019-05-26T00:26:15.679Z,8.00
2019-05-26T00:28:42.965Z,8.20
2019-05-26T00:31:10.178Z,8.80
2019-05-26T00:33:37.465Z,9.10
2019-05-26T00:36:05.265Z,8.73
2019-05-26T00:38:32.499Z,8.60
2019-05-26T00:41:00.740Z,7.60
2019-05-26T00:43:30.026Z,6.87
2019-05-26T00:45:57.554Z,6.77
2019-05-26T00:48:25.039Z,6.47
2019-05-26T00:50:52.218Z,7.70
2019-05-26T00:53:19.709Z,7.20
2019-05-26T00:55:46.869Z,7.60
2019-05-26T00:58:14.081Z,6.83
2019-05-26T01:00:41.862Z,6.60
2019-05-26T01:03:09.527Z,6.30
2019-05-26T01:05:36.746Z,6.27
2019-05-26T01:08:06.634Z,5.97
2019-05-26T01:10:33.501Z,7.37
2019-05-26T01:13:00.685Z,9.77
2019-05-26T01:15:28.050Z,6.80
2019-05-26T01:17:55.122Z,6.97
2019-05-26T01:20:23.412Z,7.90
2019-05-26T01:22:53.696Z,7.30
2019-05-26T01:25:20.228Z,8.40
2019-05-26T01:27:47.982Z,7.80
2019-05-26T01:30:15.678Z,8.10
2019-05-26T01:32:43.126Z,8.07
2019-05-26T01:35:10.577Z,7.47
2019-05-26T01:37:38.477Z,7.57
2019-05-26T01:40:07.589Z,7.40
2019-05-26T01:42:34.958Z,8.00
2019-05-26T01:45:02.428Z,8.40
2019-05-26T01:47:29.638Z,7.80
2019-05-26T01:49:56.830Z,8.00
2019-05-26T01:52:24.018Z,8.50
2019-05-26T01:54:51.215Z,7.60
2019-05-26T01:57:18.296Z,8.00
2019-05-26T01:59:45.394Z,7.60
2019-05-26T02:02:12.649Z,8.10
2019-05-26T02:04:40.279Z,6.50
2019-05-26T02:07:07.471Z,7.20
2019-05-26T02:09:34.770Z,6.50
2019-05-26T02:12:01.952Z,6.80
2019-05-26T02:14:29.398Z,6.00
2019-05-26T02:16:56.478Z,7.00
2019-05-26T02:19:23.702Z,8.27
2019-05-26T02:21:51.128Z,8.50
2019-05-26T02:24:18.597Z,8.33
2019-05-26T02:26:46.065Z,7.20
2019-05-26T02:29:13.174Z,7.73
2019-05-26T02:31:40.270Z,7.63
2019-05-26T02:34:07.450Z,7.60
2019-05-26T02:36:35.680Z,6.57
2019-05-26T02:39:06.089Z,6.93
2019-05-26T02:41:33.170Z,7.47
2019-05-26T02:44:00.268Z,6.50
2019-05-26T02:46:27.266Z,6.80
2019-05-26T02:48:54.547Z,7.90
2019-05-26T02:51:21.998Z,7.80
2019-05-26T02:53:49.208Z,10.37
2019-05-26T02:56:16.745Z,8.10
2019-05-26T02:58:44.309Z,7.77
2019-05-26T03:01:11.921Z,8.70
2019-05-26T03:03:39.132Z,8.80
2019-05-26T03:06:07.645Z,8.10
2019-05-26T03:08:36.694Z,7.80
2019-05-26T03:11:05.446Z,8.10
2019-05-26T03:13:34.749Z,7.40
2019-05-26T03:16:03.842Z,7.37
2019-05-26T03:18:32.505Z,7.70
2019-05-26T03:21:02.298Z,7.00
2019-05-26T03:23:30.855Z,6.40
2019-05-26T03:25:59.266Z,6.20
2019-05-26T03:28:26.744Z,7.20
2019-05-26T03:30:53.919Z,7.10
2019-05-26T03:33:21.083Z,7.00
2019-05-26T03:35:48.432Z,6.23
2019-05-26T03:38:15.965Z,6.27
2019-05-26T03:40:44.269Z,6.50
2019-05-26T03:43:11.738Z,6.50
2019-05-26T03:46:16.799Z,5.97
2019-05-26T03:48:44.279Z,6.23
2019-05-26T03:51:12.301Z,7.30
2019-05-26T03:53:40.129Z,7.27
2019-05-26T03:56:07.430Z,7.47
2019-05-26T03:58:34.865Z,8.03
2019-05-26T04:01:02.149Z,8.53
2019-05-26T04:03:29.374Z,9.10
2019-05-26T04:05:56.477Z,9.40
2019-05-26T04:08:24.002Z,9.23
2019-05-26T04:10:51.447Z,8.53
2019-05-26T04:13:18.696Z,8.07
2019-05-26T04:15:45.778Z,8.30
2019-05-26T04:18:12.858Z,7.77
2019-05-26T04:20:40.298Z,8.03
2019-05-26T04:23:07.722Z,7.97
2019-05-26T04:25:34.820Z,6.83
2019-05-26T04:28:02.227Z,6.43
2019-05-26T04:30:29.427Z,6.10
2019-05-26T04:32:58.154Z,5.50
2019-05-26T04:35:25.358Z,5.00
2019-05-26T04:37:52.527Z,5.27
2019-05-26T04:40:27.295Z,5.53
2019-05-26T04:42:49.044Z,5.10
2019-05-26T04:45:17.228Z,4.60
2019-05-26T04:47:44.446Z,4.93
2019-05-26T04:50:11.642Z,4.93
2019-05-26T04:52:38.727Z,4.57
2019-05-26T04:55:06.198Z,5.33
2019-05-26T04:57:33.402Z,7.73
2019-05-26T05:00:00.559Z,9.70
2019-05-26T05:02:27.952Z,9.20
2019-05-26T05:04:55.027Z,7.67
2019-05-26T05:07:22.239Z,7.50
2019-05-26T05:09:49.327Z,8.47
2019-05-26T05:12:16.774Z,7.83
2019-05-26T05:14:44.048Z,6.90
2019-05-26T05:17:11.488Z,7.30
2019-05-26T05:19:38.818Z,7.63
2019-05-26T05:22:06.020Z,6.93
2019-05-26T05:24:33.178Z,7.17
2019-05-26T05:27:00.270Z,7.67
2019-05-26T05:29:27.698Z,8.03
2019-05-26T05:31:54.788Z,7.40
2019-05-26T05:34:21.966Z,7.00
2019-05-26T05:36:49.287Z,6.37
2019-05-26T05:39:16.462Z,7.60
2019-05-26T05:41:43.651Z,7.50
2019-05-26T05:44:10.721Z,6.70
2019-05-26T05:46:38.183Z,6.90
2019-05-26T05:49:05.357Z,5.83
2019-05-26T05:51:32.554Z,6.40
2019-05-26T05:53:59.642Z,6.33
2019-05-26T05:56:27.103Z,7.07
2019-05-26T05:58:54.174Z,6.23
2019-05-26T06:01:21.363Z,6.43
2019-05-26T06:03:49.701Z,6.20
2019-05-26T06:06:16.713Z,6.47
2019-05-26T06:08:43.778Z,6.73
2019-05-26T06:11:16.631Z,6.30
2019-05-26T06:13:40.124Z,6.60
2019-05-26T06:16:07.290Z,5.97
2019-05-26T06:18:35.029Z,6.23
2019-05-26T06:21:02.123Z,6.20
2019-05-26T06:23:29.571Z,5.80
2019-05-26T06:25:56.639Z,5.50
2019-05-26T06:28:23.927Z,6.10
2019-05-26T06:30:51.147Z,6.20
2019-05-26T06:33:18.344Z,5.40
2019-05-26T06:35:45.774Z,5.37
2019-05-26T06:38:13.011Z,5.97
2019-05-26T06:40:40.074Z,6.43
2019-05-26T06:43:07.182Z,5.80
2019-05-26T06:45:34.293Z,6.13
2019-05-26T06:48:01.537Z,5.47
2019-05-26T06:50:28.720Z,6.77
2019-05-26T06:52:55.823Z,6.00
2019-05-26T06:55:23.145Z,6.10
2019-05-26T06:57:50.247Z,6.20
2019-05-26T07:00:17.467Z,6.07
2019-05-26T07:02:44.678Z,6.30
2019-05-26T07:05:12.106Z,5.33
2019-05-26T07:07:39.380Z,5.67
2019-05-26T07:10:07.430Z,6.40
2019-05-26T07:12:34.642Z,6.30
2019-05-26T07:15:01.841Z,5.87
2019-05-26T07:17:29.383Z,5.10
2019-05-26T07:19:56.470Z,5.77
2019-05-26T07:22:23.816Z,5.33
2019-05-26T07:24:50.999Z,6.10
2019-05-26T07:27:18.310Z,5.80
2019-05-26T07:29:45.737Z,5.57
2019-05-26T07:32:13.026Z,6.40
2019-05-26T07:34:40.242Z,5.40
2019-05-26T07:37:07.334Z,5.57
2019-05-26T07:39:34.641Z,5.30
2019-05-26T07:42:10.157Z,5.67
2019-05-26T07:44:30.941Z,6.00
2019-05-26T07:46:58.133Z,5.97
2019-05-26T07:49:25.469Z,5.90
2019-05-26T07:51:52.934Z,6.13
2019-05-26T07:54:25.616Z,5.67
2019-05-26T07:56:48.985Z,6.00
2019-05-26T07:59:16.554Z,5.63
2019-05-26T08:01:43.627Z,5.13
2019-05-26T08:04:10.722Z,5.93
2019-05-26T08:06:37.797Z,5.83
2019-05-26T08:09:06.883Z,6.27
2019-05-26T08:11:34.044Z,4.60
2019-05-26T08:14:01.334Z,5.53
2019-05-26T08:16:28.960Z,5.40
2019-05-26T08:18:56.282Z,5.77
2019-05-26T08:21:23.929Z,5.40
2019-05-26T08:23:50.916Z,5.47
2019-05-26T08:26:18.337Z,5.03
2019-05-26T08:28:45.544Z,4.70
2019-05-26T08:31:13.521Z,5.27
2019-05-26T08:33:40.785Z,4.33
2019-05-26T08:36:08.130Z,5.00
2019-05-26T08:38:35.109Z,4.43
2019-05-26T08:41:02.318Z,4.30
2019-05-26T08:43:29.519Z,4.47
2019-05-26T08:45:56.616Z,4.10
2019-05-26T08:48:23.593Z,5.20
2019-05-26T08:50:51.070Z,4.40
2019-05-26T08:53:18.243Z,4.37
2019-05-26T08:55:45.441Z,5.17
2019-05-26T08:58:12.812Z,5.17
2019-05-26T09:00:39.980Z,4.67
2019-05-26T09:03:07.232Z,5.53
2019-05-26T09:05:34.454Z,5.27
2019-05-26T09:08:01.642Z,5.20
2019-05-26T09:10:28.857Z,4.57
2019-05-26T09:13:01.200Z,5.13
2019-05-26T09:15:25.356Z,5.23
2019-05-26T09:17:52.540Z,4.90
2019-05-26T09:20:20.293Z,5.10
2019-05-26T09:22:47.460Z,4.73
2019-05-26T09:25:15.115Z,4.70
2019-05-26T09:27:42.709Z,4.40
2019-05-26T09:30:10.262Z,5.03
2019-05-26T09:32:37.726Z,4.80
2019-05-26T09:35:05.393Z,5.00
2019-05-26T09:37:33.139Z,4.13
2019-05-26T09:40:00.318Z,4.20
2019-05-26T09:42:27.866Z,3.93
2019-05-26T09:44:55.136Z,3.87
2019-05-26T09:47:22.654Z,4.33
2019-05-26T09:49:49.829Z,4.30
2019-05-26T09:52:17.007Z,4.03
2019-05-26T09:54:44.182Z,4.33
2019-05-26T09:57:11.257Z,4.50
2019-05-26T09:59:38.477Z,4.07
2019-05-26T10:02:06.026Z,3.83
2019-05-26T10:04:33.209Z,3.90
2019-05-26T10:07:00.551Z,4.13
2019-05-26T10:09:28.065Z,3.43
2019-05-26T10:11:55.222Z,4.00
2019-05-26T10:14:22.409Z,3.90
2019-05-26T10:16:49.484Z,3.77
2019-05-26T10:19:16.753Z,3.87
2019-05-26T10:21:44.002Z,4.43
2019-05-26T10:24:11.179Z,3.87
2019-05-26T10:26:38.378Z,4.27
2019-05-26T10:29:05.632Z,3.93
2019-05-26T10:31:33.247Z,3.97
2019-05-26T10:34:00.986Z,4.90
2019-05-26T10:36:28.766Z,4.53
2019-05-26T10:38:56.013Z,4.10
2019-05-26T10:41:23.111Z,4.20
2019-05-26T10:43:50.293Z,3.87
2019-05-26T10:46:17.399Z,4.27
2019-05-26T10:48:44.822Z,4.50
2019-05-26T10:51:13.102Z,4.07
2019-05-26T10:53:40.552Z,5.00
2019-05-26T10:56:07.757Z,4.70
2019-05-26T10:58:35.251Z,4.30
2019-05-26T11:01:02.668Z,4.40
2019-05-26T11:03:29.909Z,4.80
2019-05-26T11:05:57.326Z,4.40
2019-05-26T11:08:24.429Z,4.73
2019-05-26T11:10:51.775Z,4.23
2019-05-26T11:13:19.199Z,3.90
2019-05-26T11:15:46.589Z,4.23
2019-05-26T11:18:13.789Z,4.40
2019-05-26T11:20:40.981Z,4.03
2019-05-26T11:23:08.426Z,4.20
2019-05-26T11:25:35.901Z,4.40
2019-05-26T11:28:03.334Z,4.20
2019-05-26T11:30:30.547Z,4.63
2019-05-26T11:32:59.666Z,4.03
2019-05-26T11:35:26.826Z,4.90
2019-05-26T11:37:54.305Z,4.90
2019-05-26T11:40:21.961Z,4.30
2019-05-26T11:42:49.138Z,4.03
2019-05-26T11:45:18.518Z,4.47
2019-05-26T11:47:45.763Z,4.30
2019-05-26T11:50:13.661Z,3.80
2019-05-26T11:52:40.942Z,4.43
2019-05-26T11:55:08.258Z,4.43
2019-05-26T11:57:36.756Z,4.40
2019-05-26T12:00:05.140Z,4.20
2019-05-26T12:02:33.463Z,3.80
2019-05-26T12:05:00.909Z,4.10
2019-05-26T12:07:28.009Z,4.00
2019-05-26T12:09:55.498Z,4.80
2019-05-26T12:12:24.067Z,4.03
2019-05-26T12:14:51.280Z,4.93
2019-05-26T12:17:18.341Z,4.40
2019-05-26T12:19:45.450Z,4.17
2019-05-26T12:22:12.643Z,4.43
2019-05-26T12:24:40.992Z,4.20
2019-05-26T12:27:08.440Z,3.90
2019-05-26T12:29:35.880Z,4.00
2019-05-26T12:32:03.181Z,3.80
2019-05-26T12:34:30.256Z,4.30
2019-05-26T12:36:57.447Z,3.67
2019-05-26T12:39:24.619Z,4.17
2019-05-26T12:41:52.071Z,3.83
2019-05-26T12:44:19.250Z,4.03
2019-05-26T12:46:46.474Z,4.03
2019-05-26T12:49:13.649Z,4.20
2019-05-26T12:51:40.835Z,4.50
2019-05-26T12:54:08.011Z,3.77
2019-05-26T12:56:35.208Z,4.20
2019-05-26T12:59:02.490Z,4.50
2019-05-26T13:01:29.941Z,4.33
2019-05-26T13:03:57.096Z,3.97
2019-05-26T13:06:24.283Z,4.70
2019-05-26T13:08:51.554Z,3.47
2019-05-26T13:11:18.598Z,4.60
2019-05-26T13:13:46.034Z,4.27
2019-05-26T13:16:13.178Z,4.50
2019-05-26T13:18:40.301Z,4.80
2019-05-26T13:21:07.559Z,5.27
2019-05-26T13:23:34.734Z,4.00
2019-05-26T13:26:01.924Z,4.40
2019-05-26T13:28:30.096Z,4.50
2019-05-26T13:30:57.573Z,4.20
2019-05-26T13:33:24.551Z,4.67
2019-05-26T13:35:51.780Z,5.53
2019-05-26T13:38:18.982Z,5.33
2019-05-26T13:40:46.186Z,4.83
2019-05-26T13:43:13.910Z,4.80
2019-05-26T13:45:41.126Z,4.83
2019-05-26T13:48:08.562Z,5.43
2019-05-26T13:50:37.546Z,4.93
2019-05-26T13:53:05.025Z,4.33
2019-05-26T13:55:32.233Z,4.90
2019-05-26T13:58:00.022Z,5.00
2019-05-26T14:00:27.560Z,4.40
2019-05-26T14:02:54.767Z,4.37
2019-05-26T14:05:22.437Z,4.33
2019-05-26T14:07:49.538Z,5.00
2019-05-26T14:10:30.545Z,4.70
2019-05-26T14:12:57.740Z,4.30
2019-05-26T14:15:36.853Z,4.33
2019-05-26T14:17:55.365Z,4.27
2019-05-26T14:20:31.846Z,4.33
2019-05-26T14:22:59.250Z,4.20
2019-05-26T14:25:26.589Z,4.07
2019-05-26T14:27:54.047Z,3.93
2019-05-26T14:30:21.207Z,4.50
2019-05-26T14:32:48.337Z,4.77
2019-05-26T14:35:15.501Z,4.60
2019-05-26T14:38:09.813Z,4.87
2019-05-26T14:40:37.431Z,4.40
2019-05-26T14:43:04.902Z,5.10
2019-05-26T14:45:32.086Z,5.20
2019-05-26T14:47:59.273Z,5.00
2019-05-26T14:50:26.715Z,5.10
2019-05-26T14:52:54.070Z,4.60
2019-05-26T14:55:21.513Z,5.50
2019-05-26T14:57:48.983Z,5.50
2019-05-26T15:00:16.149Z,6.07
2019-05-26T15:02:43.631Z,6.30
2019-05-26T15:05:10.891Z,5.43
2019-05-26T15:07:37.900Z,4.73
2019-05-26T15:10:05.175Z,4.80
2019-05-26T15:12:32.934Z,4.77
2019-05-26T15:15:00.005Z,5.27
2019-05-26T15:17:27.103Z,5.03
2019-05-26T15:19:54.609Z,5.33
2019-05-26T15:22:22.794Z,6.30
2019-05-26T15:24:49.862Z,6.00
2019-05-26T15:27:17.342Z,5.40
2019-05-26T15:29:44.734Z,6.20
2019-05-26T15:32:11.944Z,6.13
2019-05-26T15:34:39.122Z,6.07
2019-05-26T15:37:07.302Z,5.60
2019-05-26T15:39:34.667Z,5.20
2019-05-26T15:42:02.229Z,5.27
2019-05-26T15:44:29.456Z,5.63
2019-05-26T15:46:56.997Z,6.10
2019-05-26T15:49:24.638Z,5.60
2019-05-26T15:51:52.141Z,6.07
2019-05-26T15:54:20.079Z,6.10
2019-05-26T15:56:47.474Z,6.20
2019-05-26T15:59:14.689Z,5.00
2019-05-26T16:01:45.442Z,6.00
2019-05-26T16:04:12.780Z,5.60
2019-05-26T16:06:39.837Z,5.20
2019-05-26T16:09:07.358Z,5.30
2019-05-26T16:11:34.590Z,5.13
2019-05-26T16:14:02.234Z,5.43
2019-05-26T16:16:40.639Z,5.70
2019-05-26T16:18:59.836Z,5.60
2019-05-26T16:21:28.235Z,5.27
2019-05-26T16:23:56.086Z,5.17
2019-05-26T16:26:23.500Z,5.20
2019-05-26T16:28:51.711Z,5.87
2019-05-26T16:31:18.882Z,5.60
2019-05-26T16:33:46.073Z,5.20
2019-05-26T16:36:13.263Z,5.23
2019-05-26T16:38:40.442Z,5.13
2019-05-26T16:41:07.870Z,5.10
2019-05-26T16:43:35.374Z,5.47
2019-05-26T16:46:02.485Z,5.03
2019-05-26T16:48:29.639Z,4.80
2019-05-26T16:50:56.735Z,5.53
2019-05-26T16:53:24.300Z,5.00
2019-05-26T16:55:51.473Z,4.80
2019-05-26T16:58:18.815Z,5.60
2019-05-26T17:00:46.022Z,4.80
2019-05-26T17:03:13.254Z,4.80
2019-05-26T17:05:40.396Z,4.70
2019-05-26T17:08:07.826Z,4.17
2019-05-26T17:10:35.072Z,4.90
2019-05-26T17:13:03.388Z,5.03
2019-05-26T17:15:31.085Z,4.60
2019-05-26T17:17:58.373Z,5.07
2019-05-26T17:20:25.631Z,4.13
2019-05-26T17:22:52.953Z,5.00
2019-05-26T17:25:20.532Z,4.27
2019-05-26T17:27:49.017Z,3.93
2019-05-26T17:30:16.416Z,3.67
2019-05-26T17:32:44.233Z,3.97
2019-05-26T17:35:11.734Z,4.30
2019-05-26T17:37:39.037Z,3.33
2019-05-26T17:40:06.447Z,4.30
2019-05-26T17:42:33.536Z,4.40
2019-05-26T17:45:00.808Z,4.33
2019-05-26T17:47:30.757Z,4.30
2019-05-26T17:49:57.213Z,4.20
2019-05-26T17:52:24.356Z,3.90
2019-05-26T17:54:51.569Z,3.97
2019-05-26T17:57:19.221Z,4.83
2019-05-26T17:59:46.505Z,4.37
2019-05-26T18:02:14.014Z,3.60
2019-05-26T18:04:41.411Z,3.83
2019-05-26T18:07:09.721Z,4.30
2019-05-26T18:09:44.025Z,4.00
2019-05-26T18:12:06.415Z,4.40
2019-05-26T18:14:33.636Z,4.03
2019-05-26T18:17:01.344Z,4.20
2019-05-26T18:19:29.822Z,4.20
2019-05-26T18:21:57.646Z,3.60
2019-05-26T18:24:24.895Z,4.00
2019-05-26T18:26:52.396Z,3.67
2019-05-26T18:29:19.982Z,4.40
2019-05-26T18:31:47.573Z,4.20
2019-05-26T18:34:14.979Z,4.40
2019-05-26T18:36:42.464Z,4.10
2019-05-26T18:39:10.397Z,4.57
2019-05-26T18:41:40.291Z,4.20
2019-05-26T18:44:10.907Z,4.00
2019-05-26T18:46:40.632Z,4.00
2019-05-26T18:49:09.765Z,3.83
2019-05-26T18:51:39.268Z,4.30
2019-05-26T18:54:08.246Z,4.20
2019-05-26T18:56:36.394Z,4.00
2019-05-26T18:59:05.421Z,3.50
2019-05-26T19:01:32.997Z,3.83
2019-05-26T19:04:02.362Z,3.70
2019-05-26T19:06:33.269Z,4.23
2019-05-26T19:09:01.440Z,4.93
2019-05-26T19:11:30.783Z,4.53
2019-05-26T19:13:59.593Z,5.10
2019-05-26T19:16:29.139Z,5.03
2019-05-26T19:18:58.535Z,4.30
2019-05-26T19:21:27.870Z,4.63
2019-05-26T19:24:03.515Z,5.10
2019-05-26T19:26:34.162Z,4.60
2019-05-26T19:29:03.443Z,4.13
2019-05-26T19:31:32.554Z,4.60
2019-05-26T19:34:01.351Z,3.90
2019-05-26T19:36:32.022Z,4.63
2019-05-26T19:39:00.846Z,5.17
2019-05-26T19:41:30.586Z,4.13
2019-05-26T19:44:00.326Z,4.77
2019-05-26T19:46:29.541Z,4.60
2019-05-26T19:48:58.984Z,5.00
2019-05-26T19:51:28.937Z,5.07
2019-05-26T19:53:59.624Z,3.83
2019-05-26T19:56:29.246Z,5.17
2019-05-26T19:58:57.286Z,4.40
2019-05-26T20:01:25.821Z,4.97
2019-05-26T20:03:54.112Z,4.87
2019-05-26T20:06:28.450Z,4.83
2019-05-26T20:09:01.640Z,4.83
2019-05-26T20:11:30.955Z,4.83
2019-05-26T20:13:59.532Z,4.80
2019-05-26T20:16:30.646Z,5.10
2019-05-26T20:18:59.922Z,4.87
2019-05-26T20:21:34.128Z,5.37
2019-05-26T20:24:02.958Z,5.00
2019-05-26T20:26:32.305Z,4.63
2019-05-26T20:29:01.342Z,5.20
2019-05-26T20:31:30.896Z,6.73
2019-05-26T20:33:59.438Z,5.60
2019-05-26T20:36:32.028Z,5.40
2019-05-26T20:39:00.577Z,4.23
2019-05-26T20:41:29.020Z,4.70
2019-05-26T20:43:57.585Z,5.13
2019-05-26T20:46:26.227Z,5.73
2019-05-26T20:48:53.753Z,6.30
2019-05-26T20:51:24.353Z,7.90
2019-05-26T20:53:52.492Z,9.50
2019-05-26T20:56:20.125Z,11.97
2019-05-26T20:58:47.702Z,9.37
2019-05-26T21:01:15.626Z,6.20
2019-05-26T21:03:43.503Z,6.13
2019-05-26T21:06:10.800Z,7.07
2019-05-26T21:08:38.524Z,6.97
2019-05-26T21:11:05.953Z,7.20
2019-05-26T21:13:35.020Z,7.23
2019-05-26T21:16:02.486Z,9.40
2019-05-26T21:18:30.507Z,10.33
2019-05-26T21:20:58.069Z,11.27
2019-05-26T21:23:25.489Z,10.80
2019-05-26T21:25:53.029Z,11.53
2019-05-26T21:28:20.832Z,10.47
2019-05-26T21:30:48.946Z,9.70
2019-05-26T21:33:17.155Z,8.40
2019-05-26T21:35:44.937Z,7.03
2019-05-26T21:38:12.637Z,8.80
2019-05-26T21:40:40.502Z,8.10
2019-05-26T21:43:08.473Z,7.97
2019-05-26T21:45:36.305Z,7.07
2019-05-26T21:48:03.816Z,6.70
2019-05-26T21:50:31.188Z,6.00
2019-05-26T21:52:59.268Z,6.43
2019-05-26T21:55:26.627Z,7.07
2019-05-26T21:57:54.340Z,6.60
2019-05-26T22:00:24.007Z,5.90
2019-05-26T22:02:53.926Z,6.00
2019-05-26T22:05:22.018Z,7.30
2019-05-26T22:07:50.367Z,6.63
2019-05-26T22:10:18.446Z,5.60
2019-05-26T22:12:46.390Z,5.13
2019-05-26T22:15:14.466Z,5.80
2019-05-26T22:17:42.277Z,5.30
2019-05-26T22:20:09.686Z,5.17
2019-05-26T22:22:37.602Z,4.70
2019-05-26T22:25:05.323Z,4.87
2019-05-26T22:27:33.051Z,5.40
2019-05-26T22:30:00.753Z,5.13
2019-05-26T22:32:28.679Z,5.07
2019-05-26T22:34:56.325Z,4.57
2019-05-26T22:37:24.103Z,5.67
2019-05-26T22:39:51.864Z,5.17
2019-05-26T22:42:19.473Z,5.23
2019-05-26T22:44:47.170Z,5.10
2019-05-26T22:47:14.898Z,4.83
2019-05-26T22:49:42.413Z,4.63
2019-05-26T22:52:10.118Z,4.77
2019-05-26T22:54:37.544Z,5.27
2019-05-26T22:57:05.179Z,4.53
2019-05-26T22:59:33.135Z,4.90
2019-05-26T23:02:01.070Z,4.60
2019-05-26T23:04:28.958Z,5.70
2019-05-26T23:06:57.206Z,5.60
2019-05-26T23:09:24.458Z,5.50
2019-05-26T23:11:52.342Z,5.10
2019-05-26T23:14:20.322Z,5.00
2019-05-26T23:16:47.675Z,4.77
2019-05-26T23:19:19.201Z,5.00
2019-05-26T23:21:44.977Z,4.43
2019-05-26T23:24:12.685Z,4.60
2019-05-26T23:26:39.948Z,5.17
2019-05-26T23:29:07.943Z,4.17
2019-05-26T23:31:35.647Z,5.23
2019-05-26T23:34:03.102Z,4.40
2019-05-26T23:36:30.861Z,5.00
2019-05-26T23:38:58.854Z,4.87
2019-05-26T23:41:26.494Z,4.90
2019-05-26T23:43:54.326Z,4.93
2019-05-26T23:46:21.673Z,5.20
2019-05-26T23:48:49.338Z,6.20
2019-05-26T23:51:16.982Z,5.50
2019-05-26T23:53:44.580Z,5.07
2019-05-26T23:56:11.842Z,5.00
2019-05-26T23:58:39.618Z,4.87
